createdAt,value
2022-07-29T00:01:01.907Z,72.90
2022-07-29T00:06:03.335Z,73.09
2022-07-29T00:11:04.765Z,74.13
2022-07-29T00:16:06.182Z,73.57
2022-07-29T00:21:07.563Z,74.57
2022-07-29T00:26:08.912Z,73.20
2022-07-29T00:31:10.287Z,73.14
2022-07-29T00:36:11.655Z,73.24
2022-07-29T00:41:13.201Z,73.83
2022-07-29T00:46:14.582Z,75.82
2022-07-29T00:51:16.221Z,75.50
2022-07-29T00:56:17.570Z,75.86
2022-07-29T01:01:18.954Z,76.77
2022-07-29T01:06:20.935Z,77.97
2022-07-29T01:11:22.492Z,77.09
2022-07-29T01:16:31.741Z,78.30
2022-07-29T01:21:33.130Z,77.62
2022-07-29T01:26:34.464Z,77.71
2022-07-29T01:31:59.444Z,77.12
2022-07-29T01:37:06.237Z,78.81
2022-07-29T01:42:15.493Z,79.46
2022-07-29T01:47:21.320Z,79.89
2022-07-29T01:52:26.780Z,80.48
2022-07-29T01:57:29.382Z,79.25
2022-07-29T02:02:31.396Z,79.15
2022-07-29T02:07:33.692Z,80.98
2022-07-29T02:12:36.585Z,81.18
2022-07-29T02:17:44.655Z,82.36
2022-07-29T02:22:47.320Z,83.88
2022-07-29T02:27:49.981Z,83.53
2022-07-29T02:32:51.825Z,82.95
2022-07-29T02:38:12.682Z,82.99
2022-07-29T02:43:14.460Z,84.07
2022-07-29T02:48:16.181Z,85.60
2022-07-29T02:53:23.630Z,84.85
2022-07-29T02:58:30.924Z,85.41
2022-07-29T03:03:35.096Z,84.82
2022-07-29T03:08:36.577Z,84.73
2022-07-29T03:13:38.425Z,87.16
2022-07-29T03:18:40.022Z,88.40
2022-07-29T03:23:44.498Z,87.89
2022-07-29T03:28:45.833Z,87.72
2022-07-29T03:33:48.509Z,88.79
2022-07-29T03:38:50.380Z,88.06
2022-07-29T03:43:52.715Z,88.39
2022-07-29T03:48:57.441Z,88.00
2022-07-29T03:53:59.137Z,87.39
2022-07-29T03:59:02.402Z,86.67
2022-07-29T04:04:04.853Z,86.72
2022-07-29T04:09:06.607Z,87.07
2022-07-29T04:14:11.363Z,89.03
2022-07-29T04:19:12.711Z,88.90
2022-07-29T04:24:14.390Z,87.89
2022-07-29T04:29:16.120Z,85.44
2022-07-29T04:34:17.947Z,83.17
2022-07-29T04:39:22.924Z,84.90
2022-07-29T04:44:28.361Z,85.54
2022-07-29T04:49:30.224Z,84.65
2022-07-29T04:54:31.587Z,83.54
2022-07-29T04:59:32.921Z,82.27
2022-07-29T05:04:34.258Z,80.09
2022-07-29T05:09:35.594Z,81.96
2022-07-29T05:14:36.934Z,79.75
2022-07-29T05:19:39.757Z,78.70
2022-07-29T05:24:41.753Z,78.28
2022-07-29T05:29:45.724Z,77.20
2022-07-29T05:34:50.460Z,77.37
2022-07-29T05:39:56.963Z,77.49
2022-07-29T05:44:58.762Z,76.03
2022-07-29T05:50:00.177Z,77.08
2022-07-29T05:55:05.256Z,77.30
2022-07-29T06:00:06.906Z,72.89
2022-07-29T06:05:10.602Z,69.69
2022-07-29T06:10:17.897Z,67.29
2022-07-29T06:15:19.311Z,65.98
2022-07-29T06:20:20.649Z,61.83
2022-07-29T06:25:31.425Z,54.87
2022-07-29T06:30:32.909Z,57.20
2022-07-29T06:35:38.552Z,51.83
2022-07-29T06:41:02.710Z,44.84
2022-07-29T06:46:05.429Z,43.81
2022-07-29T06:51:07.228Z,54.04
2022-07-29T06:56:13.614Z,54.98
2022-07-29T07:01:15.036Z,56.52
2022-07-29T07:06:16.972Z,48.12
2022-07-29T07:11:18.335Z,47.93
2022-07-29T07:16:19.775Z,42.46
2022-07-29T07:21:21.169Z,45.10
2022-07-29T07:26:22.511Z,40.20
2022-07-29T07:31:23.902Z,35.58
2022-07-29T07:36:25.339Z,34.89
2022-07-29T07:41:27.256Z,33.98
2022-07-29T07:46:33.968Z,34.32
2022-07-29T07:51:35.315Z,31.36
2022-07-29T07:56:36.865Z,32.17
2022-07-29T08:01:48.063Z,32.45
2022-07-29T08:06:58.370Z,34.25
2022-07-29T08:12:00.245Z,36.71
2022-07-29T08:17:01.763Z,34.75
2022-07-29T08:22:03.247Z,35.71
2022-07-29T08:27:09.813Z,32.09
2022-07-29T08:32:50.973Z,31.91
2022-07-29T08:37:44.146Z,31.62
2022-07-29T08:42:45.499Z,32.72
2022-07-29T08:47:47.193Z,33.18
2022-07-29T08:52:50.321Z,35.86
2022-07-29T08:57:54.454Z,34.34
2022-07-29T09:03:00.178Z,29.19
2022-07-29T09:08:02.283Z,27.92
2022-07-29T09:13:03.949Z,33.31
2022-07-29T09:18:05.292Z,30.04
2022-07-29T09:23:09.152Z,28.70
2022-07-29T09:28:11.875Z,27.22
2022-07-29T09:33:13.325Z,25.93
2022-07-29T09:38:14.826Z,30.11
2022-07-29T09:43:16.188Z,28.85
2022-07-29T09:48:18.865Z,30.82
2022-07-29T09:53:33.561Z,28.58
2022-07-29T09:58:35.582Z,35.66
2022-07-29T10:03:55.328Z,31.03
2022-07-29T10:09:07.649Z,30.88
2022-07-29T10:14:09.012Z,31.69
2022-07-29T10:19:10.534Z,29.14
2022-07-29T10:24:14.798Z,30.91
2022-07-29T10:29:16.646Z,32.62
2022-07-29T10:34:24.121Z,32.49
2022-07-29T10:39:25.595Z,30.08
2022-07-29T10:44:44.473Z,30.76
2022-07-29T10:49:56.402Z,29.72
2022-07-29T10:55:01.247Z,30.30
2022-07-29T11:00:11.364Z,33.03
2022-07-29T11:05:18.770Z,30.14
2022-07-29T11:10:21.083Z,33.85
2022-07-29T11:15:28.842Z,28.60
2022-07-29T11:20:42.781Z,28.91
2022-07-29T11:25:50.811Z,30.60
2022-07-29T11:30:56.038Z,27.80
2022-07-29T11:36:10.368Z,28.65
2022-07-29T11:41:18.544Z,26.59
2022-07-29T11:46:39.152Z,29.31
2022-07-29T11:51:48.639Z,27.93
2022-07-29T11:56:50.245Z,30.31
2022-07-29T12:02:12.109Z,29.48
2022-07-29T12:07:17.080Z,29.77
2022-07-29T12:12:18.730Z,30.78
2022-07-29T12:17:30.560Z,32.02
2022-07-29T12:22:34.274Z,29.99
2022-07-29T12:27:36.470Z,32.44
2022-07-29T12:32:42.036Z,32.96
2022-07-29T12:37:44.396Z,31.84
2022-07-29T12:43:05.590Z,31.82
2022-07-29T12:48:09.580Z,31.52
2022-07-29T12:53:12.197Z,31.74
2022-07-29T12:58:13.535Z,33.55
2022-07-29T13:03:14.926Z,32.00
2022-07-29T13:08:20.460Z,34.71
2022-07-29T13:13:23.744Z,36.82
2022-07-29T13:18:32.219Z,34.49
2022-07-29T13:23:33.587Z,33.03
2022-07-29T13:28:40.005Z,32.99
2022-07-29T13:33:41.476Z,33.58
2022-07-29T13:38:42.989Z,34.07
2022-07-29T13:43:44.612Z,34.55
2022-07-29T13:48:45.998Z,33.69
2022-07-29T13:53:47.370Z,34.03
2022-07-29T13:58:48.799Z,33.96
2022-07-29T14:03:50.204Z,33.14
2022-07-29T14:08:51.584Z,32.62
2022-07-29T14:13:52.932Z,32.67
2022-07-29T14:18:54.587Z,33.10
2022-07-29T14:23:55.930Z,32.13
2022-07-29T14:28:57.683Z,34.12
2022-07-29T14:34:02.738Z,33.91
2022-07-29T14:39:05.114Z,34.45
2022-07-29T14:44:06.442Z,35.18
2022-07-29T14:49:07.845Z,35.03
2022-07-29T14:54:11.232Z,35.69
2022-07-29T14:59:12.628Z,38.10
2022-07-29T15:04:13.966Z,35.32
2022-07-29T15:09:15.337Z,36.38
2022-07-29T15:14:16.703Z,37.04
2022-07-29T15:19:18.155Z,36.20
2022-07-29T15:24:19.750Z,36.75
2022-07-29T15:29:21.192Z,35.80
2022-07-29T15:34:24.177Z,36.47
2022-07-29T15:39:25.518Z,36.75
2022-07-29T15:44:26.892Z,37.39
2022-07-29T15:49:47.082Z,38.10
2022-07-29T15:54:50.283Z,39.04
2022-07-29T15:59:52.004Z,39.67
2022-07-29T16:04:53.346Z,39.44
2022-07-29T16:09:54.684Z,39.98
2022-07-29T16:14:56.078Z,40.37
2022-07-29T16:19:59.233Z,41.26
2022-07-29T16:25:00.582Z,41.55
2022-07-29T16:30:02.220Z,42.24
2022-07-29T16:35:05.228Z,42.98
2022-07-29T16:40:07.524Z,43.79
2022-07-29T16:45:13.203Z,43.09
2022-07-29T16:50:14.913Z,43.84
2022-07-29T16:55:16.254Z,43.59
2022-07-29T17:00:17.719Z,44.47
2022-07-29T17:05:19.112Z,44.42
2022-07-29T17:10:22.157Z,45.30
2022-07-29T17:15:23.490Z,45.57
2022-07-29T17:20:26.718Z,45.71
2022-07-29T17:25:28.058Z,46.17
2022-07-29T17:30:29.847Z,46.24
2022-07-29T17:35:49.775Z,46.05
2022-07-29T17:40:51.212Z,46.29
2022-07-29T17:45:53.632Z,47.37
2022-07-29T17:51:00.712Z,46.45
2022-07-29T17:56:02.210Z,44.82
2022-07-29T18:01:03.692Z,44.51
2022-07-29T18:06:05.200Z,43.89
2022-07-29T18:11:06.605Z,42.92
2022-07-29T18:16:09.280Z,42.56
2022-07-29T18:21:10.815Z,42.64
2022-07-29T18:26:12.160Z,42.96
2022-07-29T18:31:13.573Z,43.62
2022-07-29T18:36:14.955Z,44.49
2022-07-29T18:41:16.316Z,42.35
2022-07-29T18:46:17.790Z,43.01
2022-07-29T18:51:19.941Z,42.76
2022-07-29T18:56:21.299Z,43.02
2022-07-29T19:01:23.211Z,45.85
2022-07-29T19:06:33.274Z,46.47
2022-07-29T19:11:35.525Z,45.26
2022-07-29T19:16:36.931Z,46.79
2022-07-29T19:21:38.325Z,47.61
2022-07-29T19:26:46.407Z,49.51
2022-07-29T19:31:47.828Z,49.46
2022-07-29T19:36:49.191Z,49.76
2022-07-29T19:41:50.598Z,50.66
2022-07-29T19:47:00.490Z,50.35
2022-07-29T19:52:02.235Z,51.94
2022-07-29T19:57:03.647Z,53.09
2022-07-29T20:02:05.751Z,53.01
2022-07-29T20:07:07.555Z,53.09
2022-07-29T20:12:09.374Z,54.78
2022-07-29T20:17:10.732Z,54.31
2022-07-29T20:22:12.184Z,54.27
2022-07-29T20:27:22.276Z,55.90
2022-07-29T20:32:23.617Z,55.50
2022-07-29T20:37:25.051Z,56.64
2022-07-29T20:42:26.550Z,57.84
2022-07-29T20:47:27.883Z,58.58
2022-07-29T20:52:30.133Z,59.34
2022-07-29T20:57:39.346Z,60.34
2022-07-29T21:02:41.869Z,62.55
2022-07-29T21:07:43.333Z,63.19
2022-07-29T21:12:47.643Z,64.33
2022-07-29T21:17:48.983Z,63.10
2022-07-29T21:22:50.387Z,63.34
2022-07-29T21:28:10.764Z,64.68
2022-07-29T21:33:12.173Z,65.48
2022-07-29T21:38:16.212Z,65.85
2022-07-29T21:43:18.370Z,65.48
2022-07-29T21:48:20.544Z,64.63
2022-07-29T21:53:22.986Z,64.50
2022-07-29T21:58:26.501Z,64.79
2022-07-29T22:03:29.820Z,65.31
2022-07-29T22:08:31.251Z,65.62
2022-07-29T22:13:32.591Z,65.92
2022-07-29T22:18:34.621Z,65.42
2022-07-29T22:23:35.937Z,65.58
2022-07-29T22:28:37.271Z,66.42
2022-07-29T22:33:38.733Z,66.75
2022-07-29T22:38:40.172Z,67.65
2022-07-29T22:43:41.582Z,67.77
2022-07-29T22:48:44.361Z,67.92
2022-07-29T22:53:46.936Z,69.28
2022-07-29T22:58:49.039Z,68.53
2022-07-29T23:03:50.876Z,68.80
2022-07-29T23:08:52.885Z,69.83
2022-07-29T23:13:54.230Z,69.88
2022-07-29T23:18:55.567Z,69.42
2022-07-29T23:23:56.958Z,70.30
2022-07-29T23:28:58.377Z,71.11
2022-07-29T23:33:59.857Z,72.21
2022-07-29T23:39:01.231Z,72.88
2022-07-29T23:44:03.068Z,74.26
2022-07-29T23:49:04.525Z,75.18
2022-07-29T23:54:07.452Z,75.91
2022-07-29T23:59:09.105Z,76.59
